Terminal Aerodrome Forecast
Issued by NWS

Home | Current Version | Previous Version | Graphics & Text | Print | Product List | Glossary On
Versions: 1 2 3 4 5 6 7 8 9 10 11 12 13 14 15 16 17 18 19
000
FTUS41 KCLE 240540
TAFFDY
TAF
KFDY 240540Z 2406/2506 04010KT P6SM SCT008 OVC012
     FM241500 04010KT P6SM BKN025 BKN035
     FM241600 04010KT P6SM BKN040
     FM241900 04008KT P6SM SCT050
     FM242300 06004KT P6SM SKC=

USA.gov is the U.S. government's official web portal to all federal, state and local government web resources and services.